Time;durP1;ratioP1;P1;durP2;ratioP2;P2;SDS_P1;SDS_P2;PMS_P1;PMS_P2;Temp;Humidity;BMP_temperature;BMP_pressure;BME280_temperature;BME280_humidity;BME280_pressure;Samples;Min_cycle;Max_cycle;Signal;HPM_P1;HPM_P2
2022/09/25 00:00:42;;;;;;;14.53;6.80;;;;;;;40.66;34.90;101029.38;5050905;28;20476;-75
2022/09/25 00:03:11;;;;;;;15.33;8.30;;;;;;;40.89;35.16;101021.03;5050959;28;20414;-75
2022/09/25 00:05:38;;;;;;;24.63;9.23;;;;;;;40.77;35.18;101019.78;5050868;28;20410;-74
2022/09/25 00:08:05;;;;;;;45.20;10.70;;;;;;;40.60;35.21;101022.50;5052703;28;20478;-76
2022/09/25 00:10:31;;;;;;;16.47;7.87;;;;;;;40.90;34.86;101017.19;5051091;28;20469;-76
2022/09/25 00:12:57;;;;;;;15.60;8.50;;;;;;;40.96;34.72;101016.72;5050961;28;20468;-74
2022/09/25 00:15:24;;;;;;;14.77;8.10;;;;;;;40.61;34.76;101020.59;5050745;28;20489;-74
2022/09/25 00:17:50;;;;;;;14.17;8.30;;;;;;;40.67;34.89;101016.59;5050866;28;20516;-74
2022/09/25 00:20:22;;;;;;;26.50;7.60;;;;;;;40.52;35.55;101028.75;5052588;28;20489;-74
2022/09/25 00:22:49;;;;;;;28.13;10.53;;;;;;;41.02;34.90;101028.25;5052402;28;20408;-74
2022/09/25 00:25:16;;;;;;;19.80;8.80;;;;;;;41.11;34.74;101026.28;5050926;28;20429;-74
2022/09/25 00:27:44;;;;;;;22.37;10.70;;;;;;;40.96;35.29;101024.09;5050682;28;20415;-75
2022/09/25 00:30:12;;;;;;;20.13;7.93;;;;;;;40.97;35.28;101023.78;5050840;28;20425;-75
2022/09/25 00:32:39;;;;;;;20.43;8.40;;;;;;;40.91;34.89;101007.94;5052339;28;20416;-76
2022/09/25 00:35:06;;;;;;;18.80;7.83;;;;;;;40.71;35.67;101006.66;5050799;28;20466;-76
2022/09/25 00:37:33;;;;;;;20.23;8.90;;;;;;;40.64;35.80;101007.16;5052409;28;20395;-74
2022/09/25 00:39:59;;;;;;;26.33;9.03;;;;;;;40.53;35.64;101011.31;5050659;28;20446;-74
2022/09/25 00:42:26;;;;;;;21.27;6.60;;;;;;;40.49;35.81;101018.50;5050799;28;20508;-74
2022/09/25 00:44:57;;;;;;;25.13;9.00;;;;;;;40.84;35.07;101007.59;5050336;28;20867;-74
2022/09/25 00:47:43;;;;;;;17.83;8.13;;;;;;;40.88;34.72;101000.38;5050674;28;20427;-74
2022/09/25 00:50:15;;;;;;;21.70;8.50;;;;;;;40.68;35.40;100999.16;5051188;28;20399;-74
2022/09/25 00:52:42;;;;;;;22.57;9.10;;;;;;;40.40;36.31;101006.81;5053597;28;20414;-74
2022/09/25 00:55:11;;;;;;;20.60;9.03;;;;;;;40.80;35.26;101004.72;5037628;28;20449;-74
2022/09/25 00:57:41;;;;;;;26.00;8.27;;;;;;;40.43;35.89;100998.00;5055769;28;20391;-74
2022/09/25 01:00:12;;;;;;;15.90;8.10;;;;;;;40.77;35.20;100998.03;5054105;28;20480;-74
2022/09/25 01:02:52;;;;;;;15.93;7.30;;;;;;;40.77;35.17;100989.84;5037570;28;20417;-74
2022/09/25 01:05:23;;;;;;;22.43;8.07;;;;;;;40.86;35.33;100978.94;5053995;28;20402;-74
2022/09/25 01:07:51;;;;;;;20.80;9.50;;;;;;;41.02;34.79;100971.09;5037441;28;20415;-74
2022/09/25 01:10:20;;;;;;;19.23;10.70;;;;;;;40.90;34.77;100979.09;5054082;28;20512;-75
2022/09/25 01:12:48;;;;;;;22.87;8.37;;;;;;;40.86;34.92;100984.38;5037605;28;20415;-74
2022/09/25 01:15:17;;;;;;;15.77;8.00;;;;;;;40.92;34.96;100979.59;5053796;28;20537;-74
2022/09/25 01:17:50;;;;;;;22.63;9.27;;;;;;;40.86;34.89;100972.72;5054165;28;20428;-74
2022/09/25 01:20:58;;;;;;;21.43;9.47;;;;;;;40.94;35.12;100974.63;5054224;28;20399;-75
2022/09/25 01:23:44;;;;;;;28.03;10.13;;;;;;;40.79;34.86;100974.00;5037260;28;20399;-74
2022/09/25 01:26:37;;;;;;;16.60;8.43;;;;;;;40.78;34.74;100972.41;5053537;28;20446;-74
2022/09/25 01:29:30;;;;;;;20.77;9.00;;;;;;;40.41;35.73;100968.44;5053574;28;20447;-74
2022/09/25 01:32:02;;;;;;;14.97;7.93;;;;;;;40.98;34.67;100968.22;5055105;28;20932;-74
2022/09/25 01:34:53;;;;;;;20.23;7.93;;;;;;;41.12;34.94;100970.72;5053410;28;20845;-75
2022/09/25 01:37:24;;;;;;;14.73;9.03;;;;;;;40.91;34.87;100967.94;5053436;28;20414;-74
2022/09/25 01:40:03;;;;;;;16.73;8.63;;;;;;;40.94;35.27;100966.47;5053303;28;20806;-75
2022/09/25 01:42:39;;;;;;;31.97;8.50;;;;;;;40.70;35.15;100965.09;5053315;28;20484;-74
2022/09/25 01:45:11;;;;;;;19.63;8.63;;;;;;;41.01;34.99;100955.91;5069986;28;20526;-74
2022/09/25 01:47:38;;;;;;;21.47;8.27;;;;;;;40.81;34.81;100962.78;5056510;28;20414;-74
2022/09/25 01:50:14;;;;;;;18.37;8.33;;;;;;;40.83;34.67;100970.66;5056434;28;20444;-76
2022/09/25 01:52:45;;;;;;;16.27;8.20;;;;;;;40.94;34.90;100975.44;5074755;28;20412;-76
2022/09/25 01:55:30;;;;;;;23.30;9.53;;;;;;;40.48;35.74;100976.94;5056221;28;20881;-74
2022/09/25 01:58:09;;;;;;;14.50;8.47;;;;;;;40.83;34.86;100967.94;5056462;28;20402;-75
2022/09/25 02:00:40;;;;;;;23.47;9.37;;;;;;;40.55;35.15;100977.25;5074635;28;20883;-74
2022/09/25 02:03:30;;;;;;;23.00;9.70;;;;;;;40.78;34.75;100972.41;5074322;28;20448;-74
2022/09/25 02:06:04;;;;;;;15.33;8.37;;;;;;;40.68;35.21;100974.66;5056197;28;20418;-74
2022/09/25 02:08:43;;;;;;;28.10;10.90;;;;;;;40.89;35.06;100970.16;5056070;28;20907;-74
2022/09/25 02:11:11;;;;;;;27.00;9.07;;;;;;;40.51;35.64;100972.75;5074314;28;20789;-76
2022/09/25 02:13:40;;;;;;;20.80;8.60;;;;;;;40.70;35.16;100981.41;5056215;28;20500;-76
2022/09/25 02:16:11;;;;;;;14.00;9.13;;;;;;;40.47;35.64;100978.06;5056094;28;20446;-75
2022/09/25 02:21:49;;;;;;;23.70;9.70;;;;;;;40.56;35.01;100961.72;5074135;28;20441;-74
2022/09/25 02:24:40;;;;;;;17.67;9.70;;;;;;;40.65;35.16;100967.97;5039369;28;20410;-76
2022/09/25 02:27:06;;;;;;;22.20;9.07;;;;;;;40.92;34.74;100966.00;5041448;28;20878;-76
2022/09/25 02:29:32;;;;;;;25.43;10.70;;;;;;;40.94;34.44;100948.22;5055815;28;20437;-74
2022/09/25 02:32:09;;;;;;;25.50;8.33;;;;;;;40.91;34.69;100969.84;5055566;28;20796;-74
2022/09/25 02:34:36;;;;;;;19.37;9.63;;;;;;;40.72;34.77;100962.81;5056065;28;20496;-74
2022/09/25 02:37:09;;;;;;;23.10;8.90;;;;;;;40.44;35.60;100964.25;5055588;28;20503;-74
2022/09/25 02:39:35;;;;;;;20.87;8.63;;;;;;;40.52;35.55;100969.75;5055568;28;20482;-74
2022/09/25 02:42:25;;;;;;;13.33;8.03;;;;;;;40.55;35.49;100969.09;5055699;28;20497;-75
2022/09/25 02:45:14;;;;;;;20.23;7.07;;;;;;;40.86;34.78;100965.34;5055310;28;20458;-76
2022/09/25 02:48:04;;;;;;;15.40;8.93;;;;;;;40.25;35.62;100968.13;5055419;28;20510;-75
2022/09/25 02:50:50;;;;;;;27.20;8.97;;;;;;;40.33;35.35;100965.72;5055356;28;20421;-74
2022/09/25 02:53:41;;;;;;;21.77;9.47;;;;;;;40.45;35.13;100955.78;5055276;28;20410;-76
2022/09/25 02:56:29;;;;;;;22.63;9.70;;;;;;;40.55;35.61;100957.41;5055304;28;20482;-75
2022/09/25 02:59:21;;;;;;;22.17;9.23;;;;;;;40.45;35.58;100963.13;5055163;28;20467;-76
2022/09/25 03:01:49;;;;;;;16.30;8.70;;;;;;;40.38;35.71;100960.91;5047232;28;20414;-74
2022/09/25 03:04:18;;;;;;;22.73;11.03;;;;;;;40.24;36.17;100968.44;5055131;28;20442;-74
2022/09/25 03:06:45;;;;;;;20.87;8.57;;;;;;;40.24;36.00;100966.53;5055070;28;20441;-74
2022/09/25 03:09:14;;;;;;;13.17;7.77;;;;;;;40.63;35.31;100958.50;5073303;28;20510;-74
2022/09/25 03:11:42;;;;;;;17.10;8.40;;;;;;;40.68;35.49;100964.59;5054870;28;20422;-74
2022/09/25 03:14:08;;;;;;;18.63;8.63;;;;;;;40.57;35.38;100957.88;5054561;28;20469;-74
2022/09/25 03:16:50;;;;;;;13.10;8.00;;;;;;;40.38;35.61;100969.06;5054846;28;20464;-76
2022/09/25 03:19:21;;;;;;;17.17;6.80;;;;;;;40.08;36.31;100964.59;5054798;28;20409;-76
2022/09/25 03:21:47;;;;;;;16.40;8.40;;;;;;;40.49;35.87;100958.69;5054773;28;20441;-76
2022/09/25 03:24:17;;;;;;;17.07;8.93;;;;;;;39.81;36.54;100969.16;5073182;28;20389;-76
2022/09/25 03:26:43;;;;;;;23.80;10.50;;;;;;;39.95;36.66;100967.09;5038224;28;20418;-74
2022/09/25 03:29:11;;;;;;;17.10;8.43;;;;;;;40.47;35.94;100960.91;5054828;28;20499;-74
2022/09/25 03:31:39;;;;;;;26.63;10.10;;;;;;;40.33;36.04;100971.97;5054659;28;20421;-74
2022/09/25 03:34:05;;;;;;;22.97;8.53;;;;;;;40.20;35.87;100960.13;5072414;28;20532;-75
2022/09/25 03:36:33;;;;;;;20.50;8.67;;;;;;;40.67;35.81;100973.88;5072793;28;20559;-76
2022/09/25 03:38:59;;;;;;;28.53;10.30;;;;;;;40.25;35.89;100980.91;5054599;28;20409;-75
2022/09/25 03:41:30;;;;;;;33.97;9.47;;;;;;;39.86;36.64;100973.66;5054560;28;20522;-74
2022/09/25 03:43:57;;;;;;;17.60;9.40;;;;;;;39.92;36.28;100985.97;5054325;28;20472;-77
2022/09/25 03:46:26;;;;;;;16.83;6.27;;;;;;;39.58;36.72;100973.88;5054365;28;20434;-73
2022/09/25 03:48:53;;;;;;;15.50;7.00;;;;;;;39.94;36.02;100983.72;5054503;28;20426;-73
2022/09/25 03:51:20;;;;;;;20.60;8.03;;;;;;;39.85;36.29;100985.63;5054267;28;20442;-73
2022/09/25 03:53:48;;;;;;;28.50;8.63;;;;;;;40.31;35.85;100978.81;5054424;28;20458;-74
2022/09/25 03:56:17;;;;;;;17.03;7.17;;;;;;;40.33;35.42;100982.00;5054365;28;20473;-75
2022/09/25 03:58:43;;;;;;;23.50;8.23;;;;;;;40.04;36.37;100980.75;5072706;28;20541;-74
2022/09/25 04:01:10;;;;;;;21.70;9.00;;;;;;;40.01;36.60;100982.13;5054427;28;20977;-73
2022/09/25 04:03:38;;;;;;;28.43;8.53;;;;;;;40.02;36.22;100986.47;5054167;28;20452;-73
2022/09/25 04:06:05;;;;;;;19.57;8.77;;;;;;;39.84;36.45;100979.41;5054399;28;20409;-73
2022/09/25 04:08:34;;;;;;;18.30;9.23;;;;;;;40.23;35.97;100988.59;5054294;28;20410;-75
2022/09/25 04:11:01;;;;;;;35.63;9.33;;;;;;;40.30;35.70;100988.91;5054167;28;20815;-74
2022/09/25 04:13:35;;;;;;;16.10;10.03;;;;;;;40.59;35.31;100982.06;5072599;28;20398;-74
2022/09/25 04:16:03;;;;;;;15.40;8.67;;;;;;;40.14;35.94;100985.06;5072696;28;20771;-74
2022/09/25 04:18:33;;;;;;;19.23;9.53;;;;;;;39.90;36.21;100983.56;5072416;28;20444;-74
2022/09/25 04:21:00;;;;;;;34.60;9.23;;;;;;;39.93;36.44;100977.50;5054183;28;20505;-74
2022/09/25 04:23:27;;;;;;;14.13;6.97;;;;;;;40.10;36.39;100981.38;5072459;28;20480;-74
2022/09/25 04:25:53;;;;;;;20.07;7.87;;;;;;;40.22;35.73;100982.34;5072635;28;20390;-74
2022/09/25 04:28:21;;;;;;;17.70;10.00;;;;;;;39.83;36.50;100980.50;5057915;28;20420;-74
2022/09/25 04:30:47;;;;;;;29.63;8.57;;;;;;;39.56;36.88;100984.25;5076264;28;20955;-76
2022/09/25 04:35:59;;;;;;;20.13;10.10;;;;;;;39.80;36.67;100986.59;5075839;28;20404;-74
2022/09/25 04:38:26;;;;;;;25.73;7.63;;;;;;;39.32;37.20;100979.22;5075986;28;20441;-74
2022/09/25 04:40:52;;;;;;;21.50;10.40;;;;;;;39.70;36.61;100987.66;5057779;28;20931;-74
2022/09/25 04:43:18;;;;;;;18.73;9.77;;;;;;;39.67;36.57;100984.78;5057359;28;20513;-75
2022/09/25 04:45:46;;;;;;;28.40;9.40;;;;;;;39.68;36.44;100984.47;5075914;28;20433;-74
2022/09/25 04:48:12;;;;;;;21.13;8.00;;;;;;;39.71;36.83;100983.03;5057576;28;20413;-74
2022/09/25 04:50:38;;;;;;;16.93;8.40;;;;;;;39.58;36.97;100976.56;5057573;28;20410;-74
2022/09/25 04:53:04;;;;;;;18.77;8.50;;;;;;;40.00;36.34;100985.16;5057659;28;20413;-75
2022/09/25 04:55:30;;;;;;;17.70;7.00;;;;;;;39.07;37.41;100975.22;5057347;28;20450;-74
2022/09/25 04:57:58;;;;;;;18.67;8.30;;;;;;;39.54;36.68;100981.06;5057495;28;20418;-76
2022/09/25 05:00:27;;;;;;;13.93;8.10;;;;;;;39.76;35.92;100972.03;5057342;28;20516;-76
2022/09/25 05:02:53;;;;;;;17.20;9.60;;;;;;;39.30;36.64;100978.72;5057420;28;20974;-74
2022/09/25 05:05:19;;;;;;;18.83;8.77;;;;;;;39.79;35.78;100976.03;5075681;28;20406;-74
2022/09/25 05:07:53;;;;;;;20.17;10.17;;;;;;;39.62;36.35;100968.66;5057309;28;20516;-74
2022/09/25 05:10:20;;;;;;;23.13;7.93;;;;;;;40.09;35.53;100971.66;5075535;28;20635;-74
2022/09/25 05:12:47;;;;;;;15.13;8.20;;;;;;;39.76;36.23;100980.16;5057134;28;20447;-75
2022/09/25 05:15:13;;;;;;;20.97;8.33;;;;;;;40.12;35.02;100990.81;5057178;28;20464;-75
2022/09/25 05:17:39;;;;;;;19.30;9.87;;;;;;;39.69;35.91;100986.06;5057086;28;20413;-75
2022/09/25 05:20:06;;;;;;;20.20;7.63;;;;;;;39.58;36.08;100983.94;5057110;28;20432;-76
2022/09/25 05:22:32;;;;;;;18.00;7.57;;;;;;;39.77;36.36;100987.19;5057042;28;20811;-74
2022/09/25 05:24:58;;;;;;;20.07;7.93;;;;;;;39.99;35.86;100986.28;5057006;28;20923;-74
2022/09/25 05:27:24;;;;;;;23.93;9.30;;;;;;;39.32;36.70;100987.34;5056837;28;20425;-74
2022/09/25 05:29:50;;;;;;;19.07;10.37;;;;;;;39.62;36.56;100985.72;5057368;28;20505;-74
2022/09/25 05:32:17;;;;;;;20.20;11.10;;;;;;;39.32;37.10;100998.19;5056888;28;20421;-74
2022/09/25 05:34:43;;;;;;;20.83;8.30;;;;;;;39.30;37.26;100995.00;5056726;28;20464;-74
2022/09/25 05:37:09;;;;;;;19.77;8.50;;;;;;;39.01;37.98;100997.38;5056901;28;20425;-74
2022/09/25 05:39:35;;;;;;;25.33;7.97;;;;;;;39.14;37.37;101015.47;5056675;28;20456;-74
2022/09/25 05:42:01;;;;;;;11.40;6.70;;;;;;;39.51;36.77;101008.81;5056932;28;20501;-74
2022/09/25 05:44:27;;;;;;;17.83;11.00;;;;;;;39.29;37.11;101020.56;5053084;28;20473;-74
2022/09/25 05:46:55;;;;;;;15.10;8.27;;;;;;;39.62;36.69;101021.03;5055005;28;20466;-74
2022/09/25 05:49:22;;;;;;;18.80;9.40;;;;;;;39.49;36.85;101028.13;5053191;28;20434;-74
2022/09/25 05:51:48;;;;;;;14.40;9.80;;;;;;;39.39;37.24;101033.03;5053268;28;20512;-74
2022/09/25 05:54:14;;;;;;;12.80;8.20;;;;;;;39.85;36.39;101032.63;5053028;28;20834;-77
2022/09/25 05:56:40;;;;;;;18.70;10.73;;;;;;;40.21;36.06;101029.69;5053057;28;20774;-76
2022/09/25 05:59:06;;;;;;;18.67;8.20;;;;;;;40.21;35.68;101042.47;5054667;28;20450;-75
2022/09/25 06:01:32;;;;;;;26.93;8.70;;;;;;;39.61;36.33;101045.78;5053255;28;20425;-75
2022/09/25 06:03:58;;;;;;;14.93;7.70;;;;;;;40.21;35.39;101051.41;5053001;28;20997;-75
2022/09/25 06:06:24;;;;;;;13.33;7.30;;;;;;;39.99;35.80;101048.78;5053157;28;20616;-75
2022/09/25 06:08:53;;;;;;;19.33;8.40;;;;;;;40.40;35.11;101064.72;5053015;28;20517;-76
2022/09/25 06:11:19;;;;;;;21.67;8.87;;;;;;;40.15;35.89;101063.56;5052787;28;20419;-76
2022/09/25 06:13:49;;;;;;;19.03;11.73;;;;;;;39.78;35.82;101074.91;5052499;28;20462;-76
2022/09/25 06:16:18;;;;;;;19.77;12.17;;;;;;;39.79;36.13;101077.31;5052769;28;20415;-76
2022/09/25 06:18:46;;;;;;;16.17;9.93;;;;;;;40.16;35.80;101086.09;5052631;28;20437;-76
2022/09/25 06:21:13;;;;;;;25.27;10.60;;;;;;;40.38;35.23;101082.44;5052590;28;20516;-75
2022/09/25 06:23:42;;;;;;;24.20;9.93;;;;;;;40.47;35.24;101085.97;5052689;28;20423;-75
2022/09/25 06:26:09;;;;;;;18.80;11.10;;;;;;;40.63;35.06;101076.25;5052439;28;20501;-76
2022/09/25 06:28:35;;;;;;;19.80;9.60;;;;;;;40.47;34.98;101084.09;5054076;28;20770;-75
2022/09/25 06:31:03;;;;;;;34.23;14.10;;;;;;;40.02;35.82;101078.84;5052444;28;20426;-76
2022/09/25 06:33:29;;;;;;;27.27;11.40;;;;;;;40.11;36.01;101065.28;5053861;28;20445;-76
2022/09/25 06:35:55;;;;;;;33.33;10.73;;;;;;;40.53;35.51;101090.19;5053915;28;20446;-76
2022/09/25 06:38:21;;;;;;;24.43;14.57;;;;;;;40.70;34.67;101086.63;5052244;28;20472;-75
2022/09/25 06:40:47;;;;;;;26.43;12.07;;;;;;;40.77;34.64;101095.94;5052192;28;20446;-76
2022/09/25 06:43:15;;;;;;;33.77;16.03;;;;;;;41.06;34.55;101091.75;5053748;28;20430;-76
2022/09/25 06:45:42;;;;;;;38.80;15.17;;;;;;;40.79;34.73;101101.84;5051860;28;20892;-76
2022/09/25 06:48:14;;;;;;;28.27;12.67;;;;;;;40.95;34.63;101101.41;5052125;28;20462;-75
2022/09/25 06:50:54;;;;;;;19.70;10.03;;;;;;;40.65;35.23;101114.81;5053014;28;20452;-74
2022/09/25 06:53:22;;;;;;;25.53;10.87;;;;;;;40.96;34.87;101113.88;5051631;28;20866;-74
2022/09/25 06:55:48;;;;;;;14.80;7.77;;;;;;;40.89;34.89;101121.69;5062055;28;20481;-74
2022/09/25 06:58:21;;;;;;;23.70;10.40;;;;;;;40.34;35.44;101114.09;5059815;28;20894;-75
2022/09/25 07:00:53;;;;;;;25.17;10.10;;;;;;;41.06;34.23;101130.66;5044589;28;20418;-75
2022/09/25 07:06:06;;;;;;;23.90;10.53;;;;;;;41.01;34.76;101139.00;5053356;28;20487;-74
2022/09/25 07:08:32;;;;;;;27.20;11.57;;;;;;;41.41;33.68;101138.00;5058313;28;20406;-74
2022/09/25 07:11:00;;;;;;;16.80;9.13;;;;;;;41.43;33.57;101141.19;5054421;28;20987;-74
2022/09/25 07:13:30;;;;;;;16.60;8.50;;;;;;;41.29;33.79;101155.78;5067267;28;20457;-74
2022/09/25 07:16:05;;;;;;;15.33;8.17;;;;;;;41.37;33.86;101154.19;5058111;28;20450;-74
2022/09/25 07:18:32;;;;;;;19.80;9.23;;;;;;;41.23;34.13;101148.91;5059806;28;20424;-74
2022/09/25 07:21:06;;;;;;;21.83;10.70;;;;;;;41.15;34.54;101149.72;5071113;28;20445;-74
2022/09/25 07:23:32;;;;;;;19.07;8.97;;;;;;;41.21;34.53;101153.06;5071502;28;20409;-73
2022/09/25 07:26:07;;;;;;;17.27;10.17;;;;;;;41.01;34.11;101159.97;5069495;28;20833;-73
2022/09/25 07:28:35;;;;;;;14.50;7.37;;;;;;;40.72;34.75;101176.91;5056064;28;20475;-73
2022/09/25 07:31:12;;;;;;;15.27;8.13;;;;;;;40.89;34.54;101167.94;5068804;28;20453;-73
2022/09/25 07:33:38;;;;;;;19.33;8.67;;;;;;;40.86;34.27;101169.38;5053924;28;20929;-73
2022/09/25 07:36:04;;;;;;;16.47;9.03;;;;;;;41.08;34.31;101160.28;5055493;28;20442;-73
2022/09/25 07:38:30;;;;;;;15.70;7.23;;;;;;;40.58;34.76;101173.50;5057333;28;20426;-73
2022/09/25 07:40:57;;;;;;;13.47;7.53;;;;;;;39.97;36.03;101176.78;5058214;28;20520;-74
2022/09/25 07:43:23;;;;;;;16.10;6.47;;;;;;;40.79;35.13;101177.22;5069835;28;20418;-74
2022/09/25 07:45:52;;;;;;;27.17;10.70;;;;;;;40.74;34.85;101169.19;5069489;28;20452;-74
2022/09/25 07:48:22;;;;;;;17.57;9.47;;;;;;;40.75;34.85;101174.31;5060803;28;20443;-73
2022/09/25 07:50:49;;;;;;;20.23;9.53;;;;;;;40.62;35.09;101171.75;5063465;28;20449;-74
2022/09/25 07:53:18;;;;;;;19.40;9.97;;;;;;;41.08;34.77;101168.47;5065964;28;20427;-73
2022/09/25 07:55:45;;;;;;;32.63;10.23;;;;;;;41.12;34.03;101168.59;5060770;28;20523;-76
2022/09/25 07:58:12;;;;;;;18.43;10.70;;;;;;;40.58;34.98;101168.06;5067986;28;20939;-79
2022/09/25 08:00:39;;;;;;;13.80;8.00;;;;;;;40.91;34.47;101163.81;5061157;28;20469;-74
2022/09/25 08:03:07;;;;;;;20.00;9.30;;;;;;;40.82;34.46;101160.25;5067556;28;20503;-69
2022/09/25 08:05:33;;;;;;;22.03;8.60;;;;;;;41.36;33.67;101154.50;5063620;28;20417;-71
2022/09/25 08:08:00;;;;;;;19.50;9.40;;;;;;;40.55;35.05;101158.63;5069295;28;20436;-74
2022/09/25 08:10:26;;;;;;;13.37;6.80;;;;;;;40.69;34.70;101162.00;5068283;28;20516;-72
2022/09/25 08:12:53;;;;;;;25.57;8.63;;;;;;;40.32;35.12;101176.13;5094590;28;21650;-70
2022/09/25 08:15:19;;;;;;;16.80;8.60;;;;;;;39.48;37.26;101175.03;5064244;28;20465;-72
2022/09/25 08:17:45;;;;;;;20.83;8.43;;;;;;;40.52;35.27;101172.88;5062699;28;20429;-71
2022/09/25 08:20:11;;;;;;;14.20;7.83;;;;;;;40.90;34.86;101175.81;5085782;28;20424;-71
2022/09/25 08:22:38;;;;;;;27.90;11.63;;;;;;;40.95;35.14;101177.59;5057489;28;20424;-70
2022/09/25 08:25:04;;;;;;;12.80;8.03;;;;;;;40.48;35.28;101172.69;5067765;28;20416;-71
2022/09/25 08:27:31;;;;;;;17.13;8.93;;;;;;;40.89;34.86;101178.84;5078666;28;20413;-70
2022/09/25 08:29:57;;;;;;;17.47;7.67;;;;;;;40.72;35.36;101183.13;5046039;28;20429;-71
2022/09/25 08:32:23;;;;;;;13.23;7.10;;;;;;;40.37;36.11;101178.69;5068950;28;20412;-69
2022/09/25 08:34:49;;;;;;;20.13;8.63;;;;;;;40.66;35.29;101181.69;5041481;28;20449;-78
2022/09/25 08:37:16;;;;;;;25.87;11.07;;;;;;;39.94;36.53;101184.75;5067926;28;20429;-75
2022/09/25 08:39:42;;;;;;;15.40;9.10;;;;;;;40.07;36.53;101180.34;5065665;28;20414;-73
2022/09/25 08:42:34;;;;;;;20.50;8.63;;;;;;;41.04;35.27;101179.16;5063364;28;20461;-71
2022/09/25 08:50:42;;;;;;;17.53;8.00;;;;;;;40.99;34.67;101203.81;5085054;28;20758;-72
2022/09/25 08:53:19;;;;;;;22.03;7.90;;;;;;;40.54;35.45;101209.50;5076353;22;20490;-72
2022/09/25 08:58:32;;;;;;;27.27;10.73;;;;;;;40.73;35.05;101198.31;5040225;28;20401;-71
2022/09/25 09:01:05;;;;;;;13.03;8.30;;;;;;;41.04;34.88;101206.38;5040353;28;20446;-72
2022/09/25 09:03:39;;;;;;;21.80;8.97;;;;;;;41.21;34.43;101208.31;5021816;28;20434;-73
2022/09/25 09:06:11;;;;;;;12.73;8.60;;;;;;;41.24;34.31;101210.38;5019443;28;20484;-74
2022/09/25 09:08:39;;;;;;;20.53;9.63;;;;;;;41.33;34.54;101208.50;5037328;28;20454;-76
2022/09/25 09:11:17;;;;;;;18.60;9.90;;;;;;;41.13;34.44;101213.75;5053527;28;20537;-72
2022/09/25 09:13:56;;;;;;;23.00;11.10;;;;;;;41.07;34.58;101207.69;5028155;28;21030;-73
2022/09/25 09:16:25;;;;;;;28.83;12.83;;;;;;;40.87;35.23;101208.25;5029877;28;20430;-74
2022/09/25 09:18:52;;;;;;;18.80;11.83;;;;;;;41.26;34.59;101207.34;5031046;28;20500;-73
2022/09/25 09:21:32;;;;;;;20.97;12.00;;;;;;;41.68;33.52;101211.16;5030998;28;20425;-73
2022/09/25 09:24:05;;;;;;;22.20;10.63;;;;;;;41.40;34.47;101204.47;5047510;28;20789;-73
2022/09/25 09:26:57;;;;;;;18.17;11.17;;;;;;;41.26;34.61;101208.16;5046199;28;20418;-73
2022/09/25 09:30:28;;;;;;;21.47;9.13;;;;;;;40.98;34.88;101206.88;5028854;28;20786;-73
2022/09/25 09:33:15;;;;;;;22.23;9.50;;;;;;;41.06;35.00;101208.78;4952044;28;20433;-73
2022/09/25 09:35:59;;;;;;;17.50;9.17;;;;;;;41.37;34.10;101210.56;4956354;28;20528;-73
2022/09/25 09:38:31;;;;;;;28.90;10.77;;;;;;;41.54;34.38;101202.38;5004795;28;20430;-73
2022/09/25 09:41:14;;;;;;;23.40;8.80;;;;;;;41.84;33.81;101192.38;5030093;28;20457;-74
2022/09/25 09:43:49;;;;;;;26.77;9.57;;;;;;;41.69;34.21;101195.63;5028987;28;20426;-74
2022/09/25 09:46:57;;;;;;;11.77;6.80;;;;;;;41.21;34.80;101200.16;5047707;28;20441;-73
2022/09/25 09:49:32;;;;;;;21.37;10.10;;;;;;;41.74;34.03;101195.41;4997684;28;20537;-73
2022/09/25 09:52:04;;;;;;;25.80;9.70;;;;;;;41.13;34.75;101200.97;5026878;28;20527;-73
2022/09/25 09:54:36;;;;;;;22.67;9.93;;;;;;;41.53;34.22;101193.41;5030655;28;20481;-75
2022/09/25 09:57:13;;;;;;;14.70;9.23;;;;;;;41.64;33.93;101187.63;5027521;28;20454;-75
2022/09/25 10:00:00;;;;;;;21.70;10.50;;;;;;;41.60;33.84;101188.25;5027972;28;20481;-80
2022/09/25 10:02:32;;;;;;;23.50;9.97;;;;;;;41.88;33.50;101184.38;5045039;28;20417;-72
2022/09/25 10:05:02;;;;;;;14.93;9.60;;;;;;;41.65;33.83;101183.75;5029499;28;20432;-75
2022/09/25 10:07:32;;;;;;;19.57;9.27;;;;;;;41.89;33.43;101191.41;5045311;28;20492;-70
2022/09/25 10:09:59;;;;;;;19.10;9.90;;;;;;;41.30;34.27;101179.16;5028603;28;20542;-74
2022/09/25 10:12:35;;;;;;;18.60;11.17;;;;;;;41.47;33.99;101177.56;5028806;28;20439;-73
2022/09/25 10:15:06;;;;;;;16.53;10.00;;;;;;;41.78;33.84;101183.59;5045749;28;20497;-70
2022/09/25 10:17:36;;;;;;;19.00;8.77;;;;;;;41.63;33.90;101165.03;5024603;28;21498;-74
2022/09/25 10:20:26;;;;;;;18.90;8.23;;;;;;;41.58;33.92;101170.66;5042381;28;20480;-73
2022/09/25 10:22:55;;;;;;;19.20;9.53;;;;;;;41.77;34.02;101165.66;5025823;28;20417;-75
2022/09/25 10:25:38;;;;;;;17.33;8.77;;;;;;;41.72;33.97;101163.06;5022863;28;20433;-74
2022/09/25 10:28:26;;;;;;;25.77;17.60;;;;;;;41.57;34.31;101158.16;5027033;28;20874;-74
2022/09/25 10:30:53;;;;;;;184.03;104.90;;;;;;;41.93;33.68;101163.19;5032775;28;20409;-74
2022/09/25 10:33:25;;;;;;;60.87;36.40;;;;;;;41.83;34.08;101158.91;5053595;28;20430;-74
2022/09/25 10:35:53;;;;;;;32.97;17.57;;;;;;;41.79;33.49;101155.22;5055354;28;20477;-74
2022/09/25 10:38:22;;;;;;;25.77;15.00;;;;;;;42.08;33.04;101153.66;5055393;28;20422;-74
2022/09/25 10:41:12;;;;;;;32.13;14.07;;;;;;;42.37;33.28;101150.16;5063300;22;20494;-74
2022/09/25 10:43:52;;;;;;;25.33;11.10;;;;;;;42.09;33.18;101138.91;5020924;28;20477;-74
2022/09/25 10:52:10;;;;;;;18.93;7.13;;;;;;;42.20;33.00;101123.78;5053173;28;20402;-73
2022/09/25 10:54:37;;;;;;;22.43;8.90;;;;;;;42.08;33.21;101120.94;5034663;28;20486;-73
2022/09/25 10:57:33;;;;;;;19.53;9.10;;;;;;;42.08;33.51;101123.69;5034867;28;20516;-73
2022/09/25 11:00:05;;;;;;;14.33;9.53;;;;;;;42.21;32.96;101114.47;5024526;28;20427;-73
2022/09/25 11:02:40;;;;;;;20.03;9.17;;;;;;;42.28;32.96;101120.22;5035237;28;20457;-74
2022/09/25 11:05:16;;;;;;;18.00;9.20;;;;;;;41.57;33.57;101107.22;5023550;28;20813;-73
2022/09/25 11:07:54;;;;;;;23.03;10.50;;;;;;;41.57;34.06;101103.69;5015336;28;20419;-73
2022/09/25 11:10:23;;;;;;;28.50;11.03;;;;;;;41.95;33.34;101100.19;5029798;28;21012;-73
2022/09/25 11:12:51;;;;;;;19.60;10.00;;;;;;;42.14;32.88;101095.91;5049968;28;20421;-73
2022/09/25 11:15:20;;;;;;;27.17;7.70;;;;;;;42.42;32.38;101091.88;5054214;28;20587;-73
2022/09/25 11:17:50;;;;;;;11.47;5.90;;;;;;;42.47;32.51;101080.78;5050434;28;20991;-73
2022/09/25 11:20:16;;;;;;;17.20;7.60;;;;;;;42.09;33.18;101078.94;5054342;28;20456;-73
2022/09/25 11:23:05;;;;;;;31.73;9.50;;;;;;;42.03;33.59;101072.09;5055138;28;20449;-75
2022/09/25 11:25:51;;;;;;;18.63;8.20;;;;;;;42.45;32.77;101062.03;5041734;28;20945;-71
2022/09/25 11:28:30;;;;;;;19.73;6.53;;;;;;;41.99;33.22;101063.78;5054513;28;20457;-71
2022/09/25 11:31:36;;;;;;;19.93;8.07;;;;;;;42.19;33.08;101056.78;5054200;28;20433;-72
2022/09/25 11:34:10;;;;;;;13.87;8.57;;;;;;;41.98;33.43;101043.09;5065672;28;20494;-72
2022/09/25 11:36:48;;;;;;;17.67;8.97;;;;;;;41.75;33.33;101050.78;5048189;28;20421;-72
2022/09/25 11:42:40;;;;;;;15.30;7.47;;;;;;;42.53;32.60;101035.81;5068910;28;20404;-73
2022/09/25 11:45:19;;;;;;;14.47;6.87;;;;;;;41.95;32.94;101032.06;5048847;28;20461;-72
2022/09/25 11:47:57;;;;;;;13.97;7.57;;;;;;;42.51;32.43;101032.63;5052568;28;20461;-72
2022/09/25 11:50:48;;;;;;;23.00;7.80;;;;;;;41.91;33.20;101037.38;5069843;28;20401;-72
2022/09/25 11:53:25;;;;;;;24.70;7.87;;;;;;;42.14;32.77;101022.31;5050111;28;20426;-73
2022/09/25 11:56:06;;;;;;;20.20;11.67;;;;;;;42.19;33.39;101020.56;5052846;28;20982;-72
2022/09/25 11:58:45;;;;;;;18.80;9.47;;;;;;;42.46;32.90;101009.09;5052595;28;20437;-72
2022/09/25 12:01:38;;;;;;;21.87;10.50;;;;;;;42.39;32.87;101009.63;5071379;28;20437;-73